メインページ
METAR-TAF:

METAR-TAF

空港 :

Caro, ミシガン州, アメリカ合衆国

緯度: 43-27-31N, 経度: 083-26-43W, 海抜: 214m

現時点の気象観測

当レポートは13分前の20:15(UTC)に作成
の風 6kt
気温 1°C
湿度 59%
気圧 1027 hPa
視程: 16.1km
高度12000ftの曇り

METAR: KCFS 072015Z AUTO 18006KT 10SM OVC120 01/M06 A3034 RMK AO2 T00101056

時間: 15:28 (20:28 UTC)


TAF: 見つかりません

4,000以上の空港の気象観測と天気予報(METAR報とTAF報)

利用可能な観測所は地図上に黄色い丸と赤い丸で示す。

丸の上にカーソルを重ねると観測所名を参照できる。

次にクリックすると気象観測と天気予報を参照できる。

マップの切り替え:黒色「×」印の緑ボタンをクリックして拡大、「-」印の緑ボタンをクリックして縮小、緑色の三角印をクリックして隣りの地図に切り替え


METAR-TAF: